Time;durP1;ratioP1;P1;durP2;ratioP2;P2;SDS_P1;SDS_P2;PMS_P1;PMS_P2;Temp;Humidity;BMP_temperature;BMP_pressure;BME280_temperature;BME280_humidity;BME280_pressure;Samples;Min_cycle;Max_cycle;Signal;HPM_P1;HPM_P2
2023/04/16 00:01:25;;;;;;;3.90;3.70;;;;;;;;;;5064446;28;20241;-70
2023/04/16 00:03:52;;;;;;;0.10;0.10;;;;;;;;;;5070547;28;20228;-70
2023/04/16 00:06:18;;;;;;;0.10;0.10;;;;;;;;;;5063514;28;20263;-70
2023/04/16 00:08:44;;;;;;;0.10;0.10;;;;;;;;;;5071168;28;20275;-70
2023/04/16 00:11:11;;;;;;;0.10;0.10;;;;;;;;;;5062361;28;20264;-70
2023/04/16 00:13:39;;;;;;;0.10;0.10;;;;;;;;;;5071881;28;20465;-70
2023/04/16 00:16:05;;;;;;;0.10;0.10;;;;;;;;;;5061622;28;20302;-71
2023/04/16 00:18:32;;;;;;;0.10;0.10;;;;;;;;;;5072340;28;20279;-70
2023/04/16 00:20:58;;;;;;;0.10;0.10;;;;;;;;;;5060833;28;20339;-70
2023/04/16 00:23:25;;;;;;;0.10;0.10;;;;;;;;;;5073463;28;20201;-70
2023/04/16 00:25:52;;;;;;;0.10;0.10;;;;;;;;;;5059620;28;20287;-70
2023/04/16 00:28:18;;;;;;;0.00;0.00;;;;;;;;;;5073941;28;20204;-70
2023/04/16 00:30:46;;;;;;;0.10;0.10;;;;;;;;;;5058960;28;20578;-70
2023/04/16 00:33:12;;;;;;;0.10;0.10;;;;;;;;;;5074673;28;20259;-70
2023/04/16 00:35:39;;;;;;;0.20;0.20;;;;;;;;;;5057839;28;20250;-70
2023/04/16 00:38:05;;;;;;;0.10;0.10;;;;;;;;;;5075557;28;20508;-70
2023/04/16 00:40:32;;;;;;;0.10;0.10;;;;;;;;;;5057078;28;20535;-70
2023/04/16 00:42:58;;;;;;;0.10;0.10;;;;;;;;;;5076509;28;20450;-70
2023/04/16 00:45:24;;;;;;;0.10;0.10;;;;;;;;;;5055873;28;20278;-70
2023/04/16 00:47:52;;;;;;;0.10;0.10;;;;;;;;;;5077396;28;20235;-70
2023/04/16 00:50:18;;;;;;;0.10;0.10;;;;;;;;;;5054982;28;20206;-70
2023/04/16 00:52:46;;;;;;;0.10;0.10;;;;;;;;;;5077775;28;20255;-70
2023/04/16 00:55:14;;;;;;;0.10;0.10;;;;;;;;;;5054292;28;20226;-70
2023/04/16 00:57:40;;;;;;;0.10;0.10;;;;;;;;;;5078562;28;20413;-70
2023/04/16 01:00:07;;;;;;;0.10;0.10;;;;;;;;;;5063922;28;20204;-70
2023/04/16 01:02:34;;;;;;;0.10;0.10;;;;;;;;;;5052230;28;20209;-70
2023/04/16 01:05:02;;;;;;;0.10;0.10;;;;;;;;;;5063972;28;20199;-70
2023/04/16 01:07:28;;;;;;;0.10;0.10;;;;;;;;;;5068834;28;20255;-70
2023/04/16 01:09:55;;;;;;;0.10;0.10;;;;;;;;;;5063852;28;20528;-70
2023/04/16 01:12:21;;;;;;;0.10;0.10;;;;;;;;;;5068809;28;20246;-70
2023/04/16 01:14:48;;;;;;;0.10;0.10;;;;;;;;;;5063734;28;20252;-70
2023/04/16 01:17:14;;;;;;;1.37;1.33;;;;;;;;;;5068815;28;20294;-70
2023/04/16 01:19:40;;;;;;;0.10;0.10;;;;;;;;;;5063375;28;20247;-70
2023/04/16 01:22:08;;;;;;;0.10;0.10;;;;;;;;;;5068648;28;20270;-70
2023/04/16 01:24:35;;;;;;;0.10;0.10;;;;;;;;;;5063844;28;20242;-70
2023/04/16 01:27:01;;;;;;;0.10;0.10;;;;;;;;;;5067831;28;20240;-70
2023/04/16 01:29:27;;;;;;;0.10;0.10;;;;;;;;;;5064597;28;20491;-70
2023/04/16 01:31:54;;;;;;;0.10;0.10;;;;;;;;;;5069696;28;20518;-70
2023/04/16 01:34:20;;;;;;;0.10;0.10;;;;;;;;;;5069529;28;20334;-70
2023/04/16 01:36:47;;;;;;;0.10;0.10;;;;;;;;;;5070055;28;20238;-70
2023/04/16 01:39:15;;;;;;;0.10;0.10;;;;;;;;;;5070324;28;20270;-70
2023/04/16 01:41:41;;;;;;;0.10;0.10;;;;;;;;;;5069307;28;20261;-70
2023/04/16 01:44:07;;;;;;;0.07;0.07;;;;;;;;;;5070982;28;20209;-70
2023/04/16 01:46:35;;;;;;;0.10;0.10;;;;;;;;;;5068140;28;20262;-70
2023/04/16 01:49:01;;;;;;;0.10;0.10;;;;;;;;;;5071771;28;20204;-70
2023/04/16 01:51:28;;;;;;;0.10;0.10;;;;;;;;;;5067185;28;20306;-70
2023/04/16 01:53:54;;;;;;;0.10;0.10;;;;;;;;;;5072449;28;20234;-70
2023/04/16 01:56:22;;;;;;;0.10;0.10;;;;;;;;;;5066225;28;20243;-70
2023/04/16 01:58:48;;;;;;;0.10;0.10;;;;;;;;;;5073324;28;20244;-70
2023/04/16 02:01:15;;;;;;;0.10;0.10;;;;;;;;;;5065373;28;20293;-70
2023/04/16 02:03:41;;;;;;;0.10;0.10;;;;;;;;;;5073900;28;20271;-70
2023/04/16 02:06:08;;;;;;;0.10;0.10;;;;;;;;;;5064489;28;20311;-70
2023/04/16 02:08:34;;;;;;;0.10;0.10;;;;;;;;;;5074884;28;20233;-70
2023/04/16 02:11:00;;;;;;;2.33;2.23;;;;;;;;;;5063620;28;20439;-70
2023/04/16 02:13:28;;;;;;;0.10;0.10;;;;;;;;;;5075369;28;20278;-70
2023/04/16 02:15:54;;;;;;;0.10;0.10;;;;;;;;;;5062471;28;20255;-70
2023/04/16 02:18:21;;;;;;;0.10;0.10;;;;;;;;;;5076091;28;20239;-70
2023/04/16 02:20:48;;;;;;;0.13;0.13;;;;;;;;;;5061376;28;20239;-70
2023/04/16 02:23:14;;;;;;;0.10;0.10;;;;;;;;;;5076976;28;20219;-70
2023/04/16 02:25:41;;;;;;;0.10;0.10;;;;;;;;;;5060139;28;20243;-70
2023/04/16 02:28:07;;;;;;;0.10;0.10;;;;;;;;;;5078095;28;20206;-70
2023/04/16 02:30:36;;;;;;;0.10;0.10;;;;;;;;;;5059311;28;20583;-70
2023/04/16 02:33:04;;;;;;;0.10;0.10;;;;;;;;;;5078683;28;20214;-70
2023/04/16 02:35:30;;;;;;;0.10;0.10;;;;;;;;;;5058822;28;20700;-70
2023/04/16 02:37:57;;;;;;;0.20;0.20;;;;;;;;;;5079652;28;20433;-70
2023/04/16 02:40:23;;;;;;;0.10;0.10;;;;;;;;;;5057952;28;20211;-70
2023/04/16 02:42:49;;;;;;;0.10;0.10;;;;;;;;;;5079865;28;20239;-70
2023/04/16 02:45:16;;;;;;;0.10;0.10;;;;;;;;;;5056414;28;20275;-70
2023/04/16 02:47:43;;;;;;;0.10;0.10;;;;;;;;;;5081267;28;20442;-70
2023/04/16 02:50:10;;;;;;;0.10;0.10;;;;;;;;;;5066283;28;20247;-70
2023/04/16 02:52:38;;;;;;;0.10;0.10;;;;;;;;;;5054736;28;20211;-70
2023/04/16 02:55:04;;;;;;;0.10;0.10;;;;;;;;;;5066225;28;20291;-70
2023/04/16 02:57:31;;;;;;;0.10;0.10;;;;;;;;;;5071177;28;20244;-70
2023/04/16 02:59:57;;;;;;;0.10;0.10;;;;;;;;;;5066192;28;20396;-70
2023/04/16 03:02:23;;;;;;;0.10;0.10;;;;;;;;;;5071128;28;20525;-70
2023/04/16 03:04:51;;;;;;;0.10;0.10;;;;;;;;;;5066100;28;20200;-70
2023/04/16 03:07:18;;;;;;;0.10;0.10;;;;;;;;;;5071118;28;20302;-70
2023/04/16 03:09:44;;;;;;;0.10;0.10;;;;;;;;;;5065742;28;20206;-70
2023/04/16 03:12:10;;;;;;;0.10;0.10;;;;;;;;;;5071074;28;20244;-70
2023/04/16 03:14:37;;;;;;;0.10;0.10;;;;;;;;;;5066014;28;20285;-70
2023/04/16 03:17:03;;;;;;;0.10;0.10;;;;;;;;;;5070364;28;20246;-70
2023/04/16 03:19:30;;;;;;;0.10;0.10;;;;;;;;;;5066462;28;20204;-70
2023/04/16 03:21:57;;;;;;;0.10;0.10;;;;;;;;;;5069340;28;20287;-70
2023/04/16 03:24:24;;;;;;;0.10;0.10;;;;;;;;;;5067220;28;20232;-70
2023/04/16 03:26:51;;;;;;;0.10;0.10;;;;;;;;;;5068483;28;20240;-70
2023/04/16 03:29:17;;;;;;;0.10;0.10;;;;;;;;;;5067885;28;20275;-70
2023/04/16 03:31:44;;;;;;;0.10;0.10;;;;;;;;;;5067581;28;20255;-70
2023/04/16 03:34:10;;;;;;;0.10;0.10;;;;;;;;;;5068682;28;20255;-70
2023/04/16 03:36:36;;;;;;;0.10;0.10;;;;;;;;;;5066517;28;20481;-70
2023/04/16 03:39:04;;;;;;;0.10;0.10;;;;;;;;;;5069501;28;20211;-70
2023/04/16 03:41:30;;;;;;;0.10;0.10;;;;;;;;;;5065651;28;20250;-70
2023/04/16 03:43:57;;;;;;;0.10;0.10;;;;;;;;;;5070178;28;20383;-70
2023/04/16 03:46:23;;;;;;;0.10;0.10;;;;;;;;;;5064352;28;20310;-70
2023/04/16 03:48:50;;;;;;;0.10;0.10;;;;;;;;;;5071083;28;20516;-70
2023/04/16 03:51:16;;;;;;;0.10;0.10;;;;;;;;;;5063473;28;20242;-70
2023/04/16 03:53:42;;;;;;;0.10;0.10;;;;;;;;;;5071232;28;20211;-70
2023/04/16 03:56:10;;;;;;;0.10;0.10;;;;;;;;;;5062203;28;20249;-70
2023/04/16 03:58:36;;;;;;;0.10;0.10;;;;;;;;;;5072701;28;20271;-70
2023/04/16 04:01:03;;;;;;;0.10;0.10;;;;;;;;;;5061422;28;20306;-70
2023/04/16 04:03:29;;;;;;;0.10;0.10;;;;;;;;;;5072747;28;20204;-70
2023/04/16 04:05:55;;;;;;;0.10;0.10;;;;;;;;;;5060416;28;20261;-70
2023/04/16 04:08:22;;;;;;;0.10;0.10;;;;;;;;;;5074196;28;20261;-71
2023/04/16 04:10:49;;;;;;;0.10;0.10;;;;;;;;;;5059658;28;20307;-70
2023/04/16 04:13:17;;;;;;;0.10;0.10;;;;;;;;;;5074635;28;20204;-70
2023/04/16 04:15:43;;;;;;;0.10;0.10;;;;;;;;;;5058727;28;20306;-70
2023/04/16 04:18:10;;;;;;;0.10;0.10;;;;;;;;;;5075341;28;20204;-70
2023/04/16 04:20:38;;;;;;;0.10;0.10;;;;;;;;;;5057674;28;20310;-70
2023/04/16 04:23:05;;;;;;;0.10;0.10;;;;;;;;;;5076068;28;20235;-70
2023/04/16 04:25:31;;;;;;;0.10;0.10;;;;;;;;;;5056977;28;20246;-70
2023/04/16 04:27:57;;;;;;;0.10;0.10;;;;;;;;;;5076966;28;20279;-70
2023/04/16 04:30:25;;;;;;;0.10;0.10;;;;;;;;;;5056209;28;20231;-70
2023/04/16 04:32:52;;;;;;;0.10;0.10;;;;;;;;;;5077485;28;20211;-70
2023/04/16 04:35:18;;;;;;;0.10;0.10;;;;;;;;;;5055397;28;20425;-70
2023/04/16 04:37:44;;;;;;;0.10;0.10;;;;;;;;;;5078259;28;20235;-70
2023/04/16 04:40:11;;;;;;;0.10;0.10;;;;;;;;;;5054255;28;20204;-70
2023/04/16 04:42:37;;;;;;;0.10;0.10;;;;;;;;;;5078897;28;20200;-70
2023/04/16 04:45:04;;;;;;;0.10;0.10;;;;;;;;;;5064005;28;20210;-70
2023/04/16 04:47:32;;;;;;;0.20;0.20;;;;;;;;;;5069129;28;20311;-70
2023/04/16 04:49:58;;;;;;;0.10;0.10;;;;;;;;;;5064174;28;20535;-70
2023/04/16 04:52:25;;;;;;;0.10;0.10;;;;;;;;;;5069008;28;20492;-70
2023/04/16 04:54:52;;;;;;;0.10;0.10;;;;;;;;;;5063678;28;20224;-70
2023/04/16 04:57:18;;;;;;;0.10;0.10;;;;;;;;;;5068930;28;20307;-70
2023/04/16 04:59:45;;;;;;;0.10;0.10;;;;;;;;;;5063732;28;20276;-70
2023/04/16 05:02:11;;;;;;;0.10;0.10;;;;;;;;;;5069082;28;20512;-70
2023/04/16 05:04:39;;;;;;;0.10;0.10;;;;;;;;;;5063968;28;20425;-70
2023/04/16 05:07:05;;;;;;;0.10;0.10;;;;;;;;;;5068046;28;20423;-70
2023/04/16 05:09:31;;;;;;;0.10;0.10;;;;;;;;;;5064161;28;20366;-70
2023/04/16 05:11:58;;;;;;;0.10;0.10;;;;;;;;;;5067644;28;20265;-70
2023/04/16 05:14:24;;;;;;;0.10;0.10;;;;;;;;;;5064984;28;20211;-70
2023/04/16 05:16:50;;;;;;;0.10;0.10;;;;;;;;;;5066606;28;20249;-70
2023/04/16 05:19:17;;;;;;;0.10;0.10;;;;;;;;;;5065893;28;20274;-70
2023/04/16 05:21:45;;;;;;;0.10;0.10;;;;;;;;;;5065577;28;20241;-70
2023/04/16 05:24:11;;;;;;;0.10;0.10;;;;;;;;;;5067058;28;20235;-70
2023/04/16 05:26:37;;;;;;;0.10;0.10;;;;;;;;;;5064866;28;20298;-70
2023/04/16 05:29:04;;;;;;;0.10;0.10;;;;;;;;;;5068154;28;20235;-70
2023/04/16 05:31:30;;;;;;;0.30;0.30;;;;;;;;;;5063750;28;20255;-71
2023/04/16 05:33:56;;;;;;;0.10;0.10;;;;;;;;;;5068406;28;20242;-70
2023/04/16 05:36:23;;;;;;;0.10;0.10;;;;;;;;;;5062670;28;20306;-70
2023/04/16 05:38:50;;;;;;;0.10;0.10;;;;;;;;;;5069322;28;20271;-71
2023/04/16 05:41:17;;;;;;;0.10;0.10;;;;;;;;;;5062103;28;20258;-70
2023/04/16 05:43:43;;;;;;;0.10;0.10;;;;;;;;;;5070084;28;20236;-70
2023/04/16 05:46:09;;;;;;;0.10;0.10;;;;;;;;;;5061817;28;20239;-70
2023/04/16 05:48:36;;;;;;;0.10;0.10;;;;;;;;;;5071732;28;20205;-70
2023/04/16 05:51:02;;;;;;;0.10;0.10;;;;;;;;;;5060091;28;20301;-71
2023/04/16 05:53:28;;;;;;;0.10;0.10;;;;;;;;;;5071598;28;20279;-70
2023/04/16 05:55:56;;;;;;;0.10;0.10;;;;;;;;;;5058937;28;20307;-70
2023/04/16 05:58:23;;;;;;;0.10;0.10;;;;;;;;;;5072600;28;20420;-70
2023/04/16 06:00:49;;;;;;;0.10;0.10;;;;;;;;;;5058022;28;20577;-71
2023/04/16 06:03:15;;;;;;;0.10;0.10;;;;;;;;;;5073813;28;20384;-70
2023/04/16 06:05:42;;;;;;;0.10;0.10;;;;;;;;;;5057438;28;20502;-70
2023/04/16 06:08:08;;;;;;;0.10;0.10;;;;;;;;;;5074315;28;20449;-70
2023/04/16 06:10:34;;;;;;;0.10;0.10;;;;;;;;;;5056525;28;20273;-70
2023/04/16 06:13:02;;;;;;;0.10;0.10;;;;;;;;;;5074983;28;20215;-70
2023/04/16 06:15:29;;;;;;;0.10;0.10;;;;;;;;;;5055627;28;20488;-70
2023/04/16 06:17:55;;;;;;;0.10;0.10;;;;;;;;;;5078233;28;20239;-70
2023/04/16 06:20:22;;;;;;;0.10;0.10;;;;;;;;;;5058409;28;20374;-70
2023/04/16 06:22:48;;;;;;;0.10;0.10;;;;;;;;;;5080347;28;20359;-70
2023/04/16 06:25:15;;;;;;;0.10;0.10;;;;;;;;;;5057409;28;20505;-70
2023/04/16 06:27:41;;;;;;;0.10;0.10;;;;;;;;;;5081246;28;20519;-70
2023/04/16 06:30:13;;;;;;;0.10;0.10;;;;;;;;;;5062908;28;20449;-70
2023/04/16 06:32:39;;;;;;;0.10;0.10;;;;;;;;;;5081437;28;20300;-70
2023/04/16 06:35:06;;;;;;;0.10;0.10;;;;;;;;;;5066263;28;20286;-70
2023/04/16 06:37:32;;;;;;;0.10;0.10;;;;;;;;;;5054947;28;20467;-70
2023/04/16 06:39:59;;;;;;;0.10;0.10;;;;;;;;;;5066322;28;20204;-70
2023/04/16 06:42:25;;;;;;;0.10;0.10;;;;;;;;;;5071553;28;20502;-70
2023/04/16 06:44:51;;;;;;;0.10;0.10;;;;;;;;;;5066375;28;20212;-70
2023/04/16 06:47:19;;;;;;;0.10;0.10;;;;;;;;;;5071534;28;20266;-70
2023/04/16 06:49:46;;;;;;;0.10;0.10;;;;;;;;;;5066410;28;20212;-70
2023/04/16 06:52:12;;;;;;;0.10;0.10;;;;;;;;;;5071391;28;20254;-70
2023/04/16 06:54:39;;;;;;;0.10;0.10;;;;;;;;;;5066557;28;20212;-70
2023/04/16 06:57:05;;;;;;;0.10;0.10;;;;;;;;;;5070827;28;20302;-70
2023/04/16 06:59:31;;;;;;;0.10;0.10;;;;;;;;;;5066105;28;20232;-70
2023/04/16 07:01:58;;;;;;;0.10;0.10;;;;;;;;;;5069925;28;20255;-70
2023/04/16 07:04:25;;;;;;;0.10;0.10;;;;;;;;;;5067480;28;20239;-70
2023/04/16 07:06:52;;;;;;;0.10;0.10;;;;;;;;;;5069013;28;20242;-71
2023/04/16 07:09:18;;;;;;;0.10;0.10;;;;;;;;;;5068119;28;20211;-70
2023/04/16 07:11:45;;;;;;;0.10;0.10;;;;;;;;;;5068008;28;20246;-70
2023/04/16 07:14:11;;;;;;;0.10;0.10;;;;;;;;;;5068936;28;20211;-70
2023/04/16 07:16:37;;;;;;;0.10;0.10;;;;;;;;;;5066977;28;20259;-70
2023/04/16 07:19:04;;;;;;;0.10;0.10;;;;;;;;;;5069740;28;20204;-70
2023/04/16 07:21:31;;;;;;;0.10;0.10;;;;;;;;;;5065985;28;20478;-70
2023/04/16 07:23:58;;;;;;;0.10;0.10;;;;;;;;;;5070542;28;20226;-70
2023/04/16 07:26:24;;;;;;;0.10;0.10;;;;;;;;;;5065082;28;20635;-70
2023/04/16 07:28:51;;;;;;;0.10;0.10;;;;;;;;;;5070404;28;20236;-70
2023/04/16 07:31:17;;;;;;;0.10;0.10;;;;;;;;;;5063935;28;20259;-70
2023/04/16 07:33:43;;;;;;;0.10;0.10;;;;;;;;;;5072165;28;20452;-70
2023/04/16 07:36:10;;;;;;;0.10;0.10;;;;;;;;;;5063050;28;20611;-70
2023/04/16 07:38:38;;;;;;;0.10;0.10;;;;;;;;;;5072801;28;20262;-70
2023/04/16 07:41:04;;;;;;;0.10;0.10;;;;;;;;;;5062195;28;20267;-70
2023/04/16 07:43:30;;;;;;;0.10;0.10;;;;;;;;;;5073527;28;20489;-70
2023/04/16 07:45:57;;;;;;;0.10;0.10;;;;;;;;;;5060980;28;20503;-70
2023/04/16 07:48:23;;;;;;;0.10;0.10;;;;;;;;;;5074480;28;20205;-70
2023/04/16 07:50:50;;;;;;;0.10;0.10;;;;;;;;;;5060146;28;20248;-70
2023/04/16 07:53:16;;;;;;;0.10;0.10;;;;;;;;;;5074960;28;20204;-70
2023/04/16 07:55:44;;;;;;;0.10;0.10;;;;;;;;;;5058984;28;20254;-70
2023/04/16 07:58:10;;;;;;;0.10;0.10;;;;;;;;;;5075751;28;20260;-70
2023/04/16 08:00:37;;;;;;;0.10;0.10;;;;;;;;;;5058196;28;20262;-70
2023/04/16 08:03:03;;;;;;;0.10;0.10;;;;;;;;;;5076505;28;20273;-70
2023/04/16 08:05:30;;;;;;;0.13;0.13;;;;;;;;;;5057117;28;20258;-70
2023/04/16 08:07:56;;;;;;;0.10;0.10;;;;;;;;;;5077539;28;20271;-70
2023/04/16 08:10:22;;;;;;;0.10;0.10;;;;;;;;;;5056404;28;20204;-70
2023/04/16 08:12:50;;;;;;;0.10;0.10;;;;;;;;;;5078092;28;20242;-70
2023/04/16 08:15:17;;;;;;;0.10;0.10;;;;;;;;;;5055165;28;20236;-70
2023/04/16 08:17:43;;;;;;;0.10;0.10;;;;;;;;;;5078759;28;20214;-70
2023/04/16 08:20:10;;;;;;;0.10;0.10;;;;;;;;;;5054288;28;20563;-70
2023/04/16 08:22:36;;;;;;;0.10;0.10;;;;;;;;;;5079532;28;20230;-70
2023/04/16 08:25:03;;;;;;;0.10;0.10;;;;;;;;;;5064619;28;20226;-70
2023/04/16 08:27:29;;;;;;;0.10;0.10;;;;;;;;;;5069454;28;20253;-70
2023/04/16 08:29:57;;;;;;;0.10;0.10;;;;;;;;;;5064234;28;20204;-70
2023/04/16 08:32:24;;;;;;;0.10;0.10;;;;;;;;;;5069343;28;20311;-70
2023/04/16 08:34:51;;;;;;;0.10;0.10;;;;;;;;;;5064375;28;20211;-70
2023/04/16 08:37:17;;;;;;;0.10;0.10;;;;;;;;;;5069382;28;20441;-70
2023/04/16 08:39:43;;;;;;;0.10;0.10;;;;;;;;;;5063830;28;20464;-70
2023/04/16 08:42:12;;;;;;;0.20;0.20;;;;;;;;;;5069331;28;20247;-70
2023/04/16 08:44:43;;;;;;;0.10;0.10;;;;;;;;;;5064333;28;20215;-70
2023/04/16 08:47:12;;;;;;;0.10;0.10;;;;;;;;;;5069325;28;20315;-70
2023/04/16 08:49:43;;;;;;;0.10;0.10;;;;;;;;;;5064306;28;20278;-70
2023/04/16 08:52:13;;;;;;;0.10;0.10;;;;;;;;;;5069119;28;20298;-71
2023/04/16 08:54:56;;;;;;;0.10;0.10;;;;;;;;;;5064351;28;20208;-70
2023/04/16 08:57:23;;;;;;;0.10;0.10;;;;;;;;;;5068764;28;20302;-71
2023/04/16 08:59:50;;;;;;;0.10;0.10;;;;;;;;;;5063717;28;20280;-71
2023/04/16 09:02:18;;;;;;;0.10;0.10;;;;;;;;;;5068982;28;20258;-71
2023/04/16 09:04:45;;;;;;;0.10;0.10;;;;;;;;;;5063601;28;20238;-71
2023/04/16 09:07:11;;;;;;;0.10;0.10;;;;;;;;;;5068896;28;20256;-71
2023/04/16 09:09:38;;;;;;;0.10;0.10;;;;;;;;;;5064044;28;20204;-71
2023/04/16 09:12:04;;;;;;;0.10;0.10;;;;;;;;;;5068353;28;20624;-71
2023/04/16 09:14:31;;;;;;;0.10;0.10;;;;;;;;;;5064338;28;20244;-71
2023/04/16 09:17:00;;;;;;;0.10;0.10;;;;;;;;;;5066897;28;20310;-71
2023/04/16 09:19:27;;;;;;;0.00;0.00;;;;;;;;;;5065273;28;20235;-71
2023/04/16 09:21:54;;;;;;;0.10;0.10;;;;;;;;;;5066658;28;20262;-71
2023/04/16 09:24:21;;;;;;;0.10;0.10;;;;;;;;;;5065804;28;20204;-71
2023/04/16 09:26:48;;;;;;;0.10;0.10;;;;;;;;;;5066021;28;20478;-71
2023/04/16 09:29:32;;;;;;;0.10;0.10;;;;;;;;;;5066234;28;20275;-71
2023/04/16 09:32:01;;;;;;;0.10;0.10;;;;;;;;;;5067508;28;20494;-71
2023/04/16 09:34:29;;;;;;;0.10;0.10;;;;;;;;;;5064448;28;20276;-71
2023/04/16 09:36:55;;;;;;;0.10;0.10;;;;;;;;;;5066854;28;20231;-71
2023/04/16 09:39:22;;;;;;;0.10;0.10;;;;;;;;;;5065256;28;20283;-71
2023/04/16 09:41:51;;;;;;;0.10;0.10;;;;;;;;;;5066127;28;20238;-71
2023/04/16 09:44:17;;;;;;;0.10;0.10;;;;;;;;;;5065593;28;20211;-71
2023/04/16 09:46:44;;;;;;;0.10;0.10;;;;;;;;;;5065395;28;20242;-71
2023/04/16 09:49:10;;;;;;;0.10;0.10;;;;;;;;;;5066442;28;20235;-71
2023/04/16 09:51:40;;;;;;;0.10;0.10;;;;;;;;;;5065089;28;20323;-71
2023/04/16 09:54:07;;;;;;;0.10;0.10;;;;;;;;;;5070946;28;20207;-70
2023/04/16 09:56:33;;;;;;;0.10;0.10;;;;;;;;;;5067908;28;20311;-70
2023/04/16 09:59:00;;;;;;;0.10;0.10;;;;;;;;;;5071650;28;20242;-71
2023/04/16 10:01:26;;;;;;;0.10;0.10;;;;;;;;;;5066859;28;20284;-74
2023/04/16 10:03:53;;;;;;;0.10;0.10;;;;;;;;;;5072610;28;20228;-72
2023/04/16 10:06:20;;;;;;;0.10;0.10;;;;;;;;;;5066192;28;20249;-75
2023/04/16 10:08:48;;;;;;;0.10;0.10;;;;;;;;;;5073212;28;20430;-71
2023/04/16 10:11:15;;;;;;;0.10;0.10;;;;;;;;;;5065440;28;20243;-71
2023/04/16 10:13:42;;;;;;;0.10;0.10;;;;;;;;;;5073755;28;20238;-71
2023/04/16 10:16:08;;;;;;;0.10;0.10;;;;;;;;;;5064452;28;20382;-71
2023/04/16 10:18:36;;;;;;;0.10;0.10;;;;;;;;;;5074331;28;20406;-71
2023/04/16 10:21:02;;;;;;;0.10;0.10;;;;;;;;;;5063470;28;20299;-71
2023/04/16 10:23:29;;;;;;;0.10;0.10;;;;;;;;;;5075150;28;20211;-72
2023/04/16 10:25:58;;;;;;;0.10;0.10;;;;;;;;;;5062712;28;20261;-71
2023/04/16 10:28:24;;;;;;;0.10;0.10;;;;;;;;;;5075701;28;20208;-71
2023/04/16 10:30:55;;;;;;;0.10;0.10;;;;;;;;;;5062053;28;20588;-71
2023/04/16 10:33:22;;;;;;;0.10;0.10;;;;;;;;;;5075873;28;20204;-71
2023/04/16 10:35:49;;;;;;;0.10;0.10;;;;;;;;;;5061462;28;20314;-71
2023/04/16 10:38:23;;;;;;;0.10;0.10;;;;;;;;;;5076637;28;20259;-71
2023/04/16 10:40:50;;;;;;;0.10;0.10;;;;;;;;;;5061767;28;20567;-71
2023/04/16 10:43:18;;;;;;;0.10;0.10;;;;;;;;;;5076561;28;20204;-72
2023/04/16 10:45:45;;;;;;;0.10;0.10;;;;;;;;;;5060732;28;20240;-70
2023/04/16 10:48:13;;;;;;;0.10;0.10;;;;;;;;;;5076896;28;20242;-71
2023/04/16 10:50:40;;;;;;;0.10;0.10;;;;;;;;;;5060283;28;20244;-71
2023/04/16 10:53:17;;;;;;;0.00;0.00;;;;;;;;;;5077680;28;20230;-71
2023/04/16 10:55:55;;;;;;;0.10;0.10;;;;;;;;;;5060320;28;20271;-71
2023/04/16 10:58:29;;;;;;;0.10;0.10;;;;;;;;;;5075009;28;20231;-71
2023/04/16 11:00:59;;;;;;;0.10;0.10;;;;;;;;;;5062039;28;20239;-71
2023/04/16 11:03:26;;;;;;;0.10;0.10;;;;;;;;;;5073457;28;20208;-71
2023/04/16 11:05:52;;;;;;;0.10;0.10;;;;;;;;;;5061347;28;20243;-71
2023/04/16 11:08:18;;;;;;;0.10;0.10;;;;;;;;;;5075731;28;20524;-71
2023/04/16 11:10:45;;;;;;;0.10;0.10;;;;;;;;;;5060561;28;20239;-71
2023/04/16 11:13:12;;;;;;;0.10;0.10;;;;;;;;;;5076689;28;20442;-71
2023/04/16 11:15:40;;;;;;;0.10;0.10;;;;;;;;;;5059536;28;20520;-71
2023/04/16 11:18:06;;;;;;;0.10;0.10;;;;;;;;;;5077325;28;20259;-71
2023/04/16 11:20:33;;;;;;;0.10;0.10;;;;;;;;;;5058862;28;20588;-71
2023/04/16 11:22:59;;;;;;;0.10;0.10;;;;;;;;;;5078009;28;20373;-71
2023/04/16 11:25:28;;;;;;;0.00;0.00;;;;;;;;;;5057519;28;20248;-71
2023/04/16 11:27:55;;;;;;;0.10;0.10;;;;;;;;;;5078332;28;20204;-72
2023/04/16 11:30:28;;;;;;;0.10;0.10;;;;;;;;;;5056715;28;20202;-71
2023/04/16 11:32:56;;;;;;;0.10;0.10;;;;;;;;;;5078633;28;20541;-71
2023/04/16 11:35:22;;;;;;;0.10;0.10;;;;;;;;;;5056955;28;20238;-71
2023/04/16 11:37:49;;;;;;;0.10;0.10;;;;;;;;;;5079025;28;20274;-73
2023/04/16 11:40:15;;;;;;;0.10;0.10;;;;;;;;;;5055904;28;20199;-72
2023/04/16 11:42:43;;;;;;;0.10;0.10;;;;;;;;;;5079639;28;20206;-73
2023/04/16 11:45:10;;;;;;;0.10;0.10;;;;;;;;;;5054955;28;20214;-73
2023/04/16 11:47:42;;;;;;;0.07;0.07;;;;;;;;;;5080014;28;20229;-72
2023/04/16 11:50:20;;;;;;;0.10;0.10;;;;;;;;;;5064983;28;20194;-72
2023/04/16 11:52:47;;;;;;;0.10;0.10;;;;;;;;;;5064984;28;20202;-71
2023/04/16 11:55:14;;;;;;;0.10;0.10;;;;;;;;;;5065178;28;20307;-70
2023/04/16 11:57:40;;;;;;;0.10;0.10;;;;;;;;;;5053350;28;20230;-70
2023/04/16 12:00:12;;;;;;;0.10;0.10;;;;;;;;;;5065144;28;20211;-70
2023/04/16 12:02:39;;;;;;;0.10;0.10;;;;;;;;;;5053502;28;20537;-70
2023/04/16 12:05:21;;;;;;;0.10;0.10;;;;;;;;;;5064984;28;20205;-70
2023/04/16 12:07:48;;;;;;;0.10;0.10;;;;;;;;;;5064261;28;20231;-70
2023/04/16 12:10:15;;;;;;;0.10;0.10;;;;;;;;;;5055179;28;20277;-70
2023/04/16 12:12:41;;;;;;;0.10;0.10;;;;;;;;;;5078899;28;20324;-71
2023/04/16 12:15:08;;;;;;;0.10;0.10;;;;;;;;;;5060243;28;20246;-71
2023/04/16 12:17:35;;;;;;;0.10;0.10;;;;;;;;;;5079655;28;20237;-71
2023/04/16 12:20:04;;;;;;;0.10;0.10;;;;;;;;;;5064472;28;20337;-71
2023/04/16 12:22:33;;;;;;;0.10;0.10;;;;;;;;;;5069671;28;20244;-71
2023/04/16 12:25:01;;;;;;;0.07;0.07;;;;;;;;;;5064671;28;20206;-71
2023/04/16 12:27:40;;;;;;;0.10;0.10;;;;;;;;;;5069559;28;20411;-72
2023/04/16 12:30:07;;;;;;;0.10;0.10;;;;;;;;;;5064565;28;20202;-72
2023/04/16 12:32:34;;;;;;;0.10;0.10;;;;;;;;;;5052787;28;20393;-72
2023/04/16 12:35:00;;;;;;;0.10;0.10;;;;;;;;;;5064422;28;20397;-72
2023/04/16 12:37:27;;;;;;;0.10;0.10;;;;;;;;;;5069228;28;20242;-72
2023/04/16 12:39:53;;;;;;;0.10;0.10;;;;;;;;;;5064136;28;20253;-72
2023/04/16 12:42:21;;;;;;;0.10;0.10;;;;;;;;;;5069210;28;20428;-72
2023/04/16 12:44:47;;;;;;;0.10;0.10;;;;;;;;;;5063898;28;20224;-72
2023/04/16 12:47:14;;;;;;;0.10;0.10;;;;;;;;;;5069200;28;20497;-72
2023/04/16 12:49:40;;;;;;;0.10;0.10;;;;;;;;;;5064371;28;20239;-72
2023/04/16 12:52:07;;;;;;;0.10;0.10;;;;;;;;;;5068861;28;20331;-72
2023/04/16 12:54:33;;;;;;;0.10;0.10;;;;;;;;;;5064396;28;20264;-72
2023/04/16 12:56:59;;;;;;;0.10;0.10;;;;;;;;;;5067878;28;20511;-72
2023/04/16 12:59:27;;;;;;;0.10;0.10;;;;;;;;;;5065171;28;20386;-72
2023/04/16 13:01:53;;;;;;;0.10;0.10;;;;;;;;;;5067117;28;20305;-72
2023/04/16 13:04:20;;;;;;;0.10;0.10;;;;;;;;;;5066014;28;20229;-72
2023/04/16 13:06:46;;;;;;;0.10;0.10;;;;;;;;;;5066197;28;20605;-72
2023/04/16 13:09:13;;;;;;;0.00;0.00;;;;;;;;;;5066585;28;20300;-72
2023/04/16 13:11:39;;;;;;;0.10;0.10;;;;;;;;;;5065168;28;20296;-72
2023/04/16 13:14:05;;;;;;;0.10;0.10;;;;;;;;;;5067597;28;20208;-72
2023/04/16 13:16:33;;;;;;;0.10;0.10;;;;;;;;;;5064295;28;20609;-72
2023/04/16 13:18:59;;;;;;;0.10;0.10;;;;;;;;;;5067819;28;20238;-71
2023/04/16 13:21:26;;;;;;;0.10;0.10;;;;;;;;;;5063247;28;20310;-72
2023/04/16 13:23:52;;;;;;;0.10;0.10;;;;;;;;;;5069077;28;20276;-72
2023/04/16 13:26:19;;;;;;;0.10;0.10;;;;;;;;;;5061612;28;20419;-72
2023/04/16 13:28:45;;;;;;;0.10;0.10;;;;;;;;;;5070015;28;20445;-72
2023/04/16 13:31:12;;;;;;;0.10;0.10;;;;;;;;;;5061595;28;20242;-72
2023/04/16 13:33:40;;;;;;;0.10;0.10;;;;;;;;;;5070852;28;20498;-72
2023/04/16 13:36:06;;;;;;;0.10;0.10;;;;;;;;;;5060635;28;20261;-72
2023/04/16 13:38:33;;;;;;;0.10;0.10;;;;;;;;;;5071485;28;20414;-72
2023/04/16 13:40:59;;;;;;;0.10;0.10;;;;;;;;;;5059617;28;20303;-72
2023/04/16 13:43:26;;;;;;;0.10;0.10;;;;;;;;;;5071916;28;20249;-72
2023/04/16 13:45:52;;;;;;;0.10;0.10;;;;;;;;;;5058780;28;20246;-72
2023/04/16 13:48:19;;;;;;;0.00;0.00;;;;;;;;;;5073318;28;20251;-72
2023/04/16 13:50:46;;;;;;;0.10;0.10;;;;;;;;;;5057998;28;20279;-72
2023/04/16 13:53:13;;;;;;;0.10;0.10;;;;;;;;;;5073866;28;20241;-72
2023/04/16 13:55:39;;;;;;;0.10;0.10;;;;;;;;;;5057126;28;20242;-72
2023/04/16 13:58:06;;;;;;;0.10;0.10;;;;;;;;;;5074805;28;20265;-72
2023/04/16 14:00:32;;;;;;;0.10;0.10;;;;;;;;;;5055839;28;20248;-71
2023/04/16 14:02:59;;;;;;;0.10;0.10;;;;;;;;;;5075611;28;20237;-72
2023/04/16 14:05:25;;;;;;;0.10;0.10;;;;;;;;;;5055213;28;20230;-75
2023/04/16 14:07:53;;;;;;;0.10;0.10;;;;;;;;;;5076433;28;20232;-74
2023/04/16 14:10:19;;;;;;;0.10;0.10;;;;;;;;;;5054152;28;20207;-74
2023/04/16 14:12:46;;;;;;;0.10;0.10;;;;;;;;;;5077284;28;20214;-74
2023/04/16 14:15:14;;;;;;;0.10;0.10;;;;;;;;;;5053226;28;20232;-74
2023/04/16 14:17:41;;;;;;;0.10;0.10;;;;;;;;;;5077774;28;20230;-74
2023/04/16 14:20:08;;;;;;;0.10;0.10;;;;;;;;;;5061622;28;20207;-73
2023/04/16 14:22:34;;;;;;;0.10;0.10;;;;;;;;;;5078461;28;20247;-74
2023/04/16 14:25:02;;;;;;;0.10;0.10;;;;;;;;;;5063137;28;20399;-74
2023/04/16 14:27:29;;;;;;;0.10;0.10;;;;;;;;;;5068146;28;20259;-65
2023/04/16 14:29:56;;;;;;;0.10;0.10;;;;;;;;;;5062789;28;20279;-63
2023/04/16 14:32:23;;;;;;;0.10;0.10;;;;;;;;;;5068054;28;20322;-64
2023/04/16 14:34:49;;;;;;;0.00;0.00;;;;;;;;;;5062962;28;20228;-66
2023/04/16 14:37:16;;;;;;;0.10;0.10;;;;;;;;;;5067992;28;20309;-64
2023/04/16 14:39:42;;;;;;;0.10;0.10;;;;;;;;;;5066821;28;20212;-64
2023/04/16 14:42:10;;;;;;;0.10;0.10;;;;;;;;;;5071615;28;20302;-66